Time;durP1;ratioP1;P1;durP2;ratioP2;P2;SDS_P1;SDS_P2;PMS_P1;PMS_P2;Temp;Humidity;BMP_temperature;BMP_pressure;BME280_temperature;BME280_humidity;BME280_pressure;Samples;Min_cycle;Max_cycle;Signal;HPM_P1;HPM_P2
2021/01/14 00:02:04;;;;;;;0.60;0.45;;;2.40;99.90;;;;;;6198953;23;20001;-83
2021/01/14 00:04:30;;;;;;;0.30;0.30;;;2.40;99.90;;;;;;6224609;23;20060;-82
2021/01/14 00:06:57;;;;;;;0.30;0.30;;;2.40;99.90;;;;;;6202733;23;20055;-82
2021/01/14 00:09:23;;;;;;;0.20;0.20;;;2.40;99.90;;;;;;6233543;23;20067;-80
2021/01/14 00:11:49;;;;;;;0.30;0.30;;;2.50;99.90;;;;;;6224545;23;20000;-81
2021/01/14 00:14:14;;;;;;;0.38;0.35;;;2.50;99.90;;;;;;6224115;23;20001;-80
2021/01/14 00:16:40;;;;;;;0.20;0.20;;;2.40;99.90;;;;;;6226663;23;20062;-82
2021/01/14 00:19:06;;;;;;;0.30;0.30;;;2.40;99.90;;;;;;6224937;23;19997;-82
2021/01/14 00:21:38;;;;;;;0.57;0.30;;;2.40;99.90;;;;;;6226376;23;20007;-83
2021/01/14 00:24:04;;;;;;;0.25;0.20;;;2.50;99.90;;;;;;6223648;23;19997;-82
2021/01/14 00:26:31;;;;;;;0.75;0.20;;;2.50;99.90;;;;;;6222090;23;20083;-82
2021/01/14 00:28:56;;;;;;;0.40;0.40;;;2.50;99.90;;;;;;6195323;23;20087;-79
2021/01/14 00:31:22;;;;;;;0.20;0.20;;;2.50;99.90;;;;;;6194685;23;20001;-84
2021/01/14 00:33:47;;;;;;;0.65;0.40;;;2.40;99.90;;;;;;6203133;23;20004;-83
2021/01/14 00:36:13;;;;;;;0.50;0.38;;;2.40;99.90;;;;;;6199826;23;20325;-81
2021/01/14 00:38:38;;;;;;;0.30;0.30;;;2.30;99.90;;;;;;6224530;23;20008;-81
2021/01/14 00:41:05;;;;;;;2.72;0.40;;;2.40;99.90;;;;;;6199584;23;20078;-81
2021/01/14 00:43:31;;;;;;;0.75;0.30;;;2.40;99.90;;;;;;6233768;23;20060;-80
2021/01/14 00:45:57;;;;;;;0.30;0.30;;;2.40;99.90;;;;;;6229477;23;20000;-82
2021/01/14 00:48:23;;;;;;;0.30;0.30;;;2.30;99.90;;;;;;6222887;23;20051;-81
2021/01/14 00:50:49;;;;;;;0.50;0.50;;;2.30;99.90;;;;;;6228509;23;19996;-81
2021/01/14 00:53:15;;;;;;;0.40;0.40;;;2.30;99.90;;;;;;6204636;23;20392;-81
2021/01/14 00:55:41;;;;;;;0.30;0.30;;;2.30;99.90;;;;;;6232958;23;20004;-81
2021/01/14 00:58:06;;;;;;;0.30;0.30;;;2.30;99.90;;;;;;6230103;23;20055;-80
2021/01/14 01:00:32;;;;;;;1.65;0.40;;;2.30;99.90;;;;;;6223953;23;20043;-79
2021/01/14 01:02:57;;;;;;;0.20;0.20;;;2.30;99.90;;;;;;6222788;23;20008;-82
2021/01/14 01:05:23;;;;;;;0.38;0.35;;;2.30;99.90;;;;;;6224706;23;20150;-81
2021/01/14 01:07:59;;;;;;;0.30;0.30;;;2.30;99.90;;;;;;6226897;23;20016;-81
2021/01/14 01:10:28;;;;;;;0.43;0.43;;;2.30;99.90;;;;;;6201068;23;20001;-80
2021/01/14 01:12:56;;;;;;;0.45;0.40;;;2.30;99.90;;;;;;6198342;23;20068;-82
2021/01/14 01:15:23;;;;;;;2.10;0.57;;;2.20;99.90;;;;;;6192966;23;20052;-80
2021/01/14 01:17:49;;;;;;;0.75;0.60;;;2.20;99.90;;;;;;6221646;23;20011;-81
2021/01/14 01:20:15;;;;;;;1.83;0.70;;;2.20;99.90;;;;;;6222620;23;20003;-82
2021/01/14 01:22:41;;;;;;;0.50;0.50;;;2.20;99.90;;;;;;6195614;23;20035;-81
2021/01/14 01:25:07;;;;;;;0.65;0.65;;;2.20;99.90;;;;;;6225884;23;20008;-81
2021/01/14 01:27:32;;;;;;;0.70;0.70;;;2.10;99.90;;;;;;6226952;23;20099;-80
2021/01/14 01:29:58;;;;;;;2.03;0.70;;;2.10;99.90;;;;;;6226238;23;20071;-80
2021/01/14 01:32:24;;;;;;;0.75;0.73;;;2.10;99.90;;;;;;6228277;23;19996;-80
2021/01/14 01:34:49;;;;;;;1.90;0.95;;;2.10;99.90;;;;;;6226690;23;19997;-79
2021/01/14 01:37:15;;;;;;;0.75;0.75;;;2.10;99.90;;;;;;6222383;23;20020;-81
2021/01/14 01:39:41;;;;;;;0.98;0.98;;;2.10;99.90;;;;;;6218675;23;20019;-80
2021/01/14 01:42:06;;;;;;;0.70;0.70;;;2.20;99.90;;;;;;6221854;23;20008;-82
2021/01/14 01:44:32;;;;;;;1.05;0.95;;;2.30;99.90;;;;;;6195906;23;20084;-81
2021/01/14 01:47:05;;;;;;;1.00;0.90;;;2.20;99.90;;;;;;6218756;23;20032;-81
2021/01/14 01:49:33;;;;;;;2.28;0.85;;;2.10;99.90;;;;;;6192858;23;20070;-81
2021/01/14 01:52:01;;;;;;;1.33;1.15;;;2.10;99.90;;;;;;6219282;23;20004;-81
2021/01/14 01:54:27;;;;;;;0.95;0.95;;;2.10;99.90;;;;;;6219455;23;20351;-80
2021/01/14 01:56:53;;;;;;;1.25;1.15;;;2.10;99.90;;;;;;6219286;23;20016;-81
2021/01/14 01:59:21;;;;;;;1.30;1.20;;;2.20;99.90;;;;;;6218112;23;20032;-80
2021/01/14 02:01:47;;;;;;;1.20;1.15;;;2.20;99.90;;;;;;6217831;23;20011;-80
2021/01/14 02:04:13;;;;;;;1.30;1.20;;;2.30;99.90;;;;;;6218268;23;20075;-80
2021/01/14 02:07:03;;;;;;;2.55;1.20;;;2.20;99.90;;;;;;6199441;23;20086;-80
2021/01/14 02:09:28;;;;;;;2.80;1.27;;;2.20;99.90;;;;;;6198708;23;20000;-82
2021/01/14 02:12:03;;;;;;;3.40;1.60;;;2.20;99.90;;;;;;6219218;23;20001;-82
2021/01/14 02:14:30;;;;;;;1.88;1.17;;;2.10;99.90;;;;;;6220421;23;20362;-82
2021/01/14 02:16:55;;;;;;;1.35;1.20;;;2.20;99.90;;;;;;6218567;23;20456;-82
2021/01/14 02:19:26;;;;;;;3.35;1.30;;;2.10;99.90;;;;;;6224133;23;20067;-80
2021/01/14 02:21:59;;;;;;;1.20;1.10;;;2.10;99.90;;;;;;6221079;23;20015;-80
2021/01/14 02:24:33;;;;;;;1.95;1.15;;;2.10;99.90;;;;;;6219870;23;20023;-81
2021/01/14 02:27:00;;;;;;;2.08;1.13;;;2.10;99.90;;;;;;6219311;23;20004;-82
2021/01/14 02:29:27;;;;;;;1.02;0.98;;;2.00;99.90;;;;;;6221626;23;20466;-82
2021/01/14 02:31:52;;;;;;;1.65;1.30;;;2.00;99.90;;;;;;6222160;23;20091;-82
2021/01/14 02:34:18;;;;;;;2.22;1.45;;;2.10;99.90;;;;;;6219607;23;20401;-80
2021/01/14 02:36:44;;;;;;;2.03;1.02;;;2.00;99.90;;;;;;6218232;23;20005;-80
2021/01/14 02:39:09;;;;;;;1.27;1.05;;;2.10;99.90;;;;;;6194288;23;20054;-80
2021/01/14 02:41:35;;;;;;;1.08;1.02;;;2.00;99.90;;;;;;6220405;23;20000;-80
2021/01/14 02:44:00;;;;;;;0.85;0.85;;;2.10;99.90;;;;;;6194295;23;20004;-81
2021/01/14 02:46:27;;;;;;;1.20;1.10;;;2.10;99.90;;;;;;6220324;23;19997;-81
2021/01/14 02:49:06;;;;;;;1.20;1.10;;;2.10;99.90;;;;;;6220219;23;20005;-81
2021/01/14 02:51:40;;;;;;;1.00;1.00;;;2.10;99.90;;;;;;6220573;23;20001;-81
2021/01/14 02:54:08;;;;;;;1.17;1.08;;;2.10;99.90;;;;;;6219357;23;20001;-81
2021/01/14 02:56:36;;;;;;;1.20;1.10;;;2.20;99.90;;;;;;6221210;23;19997;-81
2021/01/14 02:59:02;;;;;;;1.50;1.40;;;2.20;99.90;;;;;;6220890;23;20051;-82
2021/01/14 03:01:28;;;;;;;1.02;1.02;;;2.10;99.90;;;;;;6221659;23;20005;-82
2021/01/14 03:03:53;;;;;;;1.45;1.35;;;2.10;99.90;;;;;;6220758;23;20066;-81
2021/01/14 03:06:19;;;;;;;1.38;1.27;;;2.10;99.90;;;;;;6222112;23;20005;-81
2021/01/14 03:08:46;;;;;;;1.45;1.35;;;2.10;99.90;;;;;;6220990;23;20020;-81
2021/01/14 03:11:12;;;;;;;1.80;1.70;;;2.10;99.90;;;;;;6220017;23;20001;-82
2021/01/14 03:13:38;;;;;;;1.50;1.40;;;2.10;99.90;;;;;;6219653;23;20031;-80
2021/01/14 03:16:04;;;;;;;1.77;1.50;;;2.10;99.90;;;;;;6221223;23;20027;-81
2021/01/14 03:18:29;;;;;;;1.55;1.40;;;2.10;99.90;;;;;;6220554;23;20432;-82
2021/01/14 03:20:55;;;;;;;1.73;1.63;;;2.10;99.90;;;;;;6219784;23;20005;-80
2021/01/14 03:23:21;;;;;;;1.92;1.83;;;2.10;99.90;;;;;;6220820;23;20019;-81
2021/01/14 03:25:46;;;;;;;1.45;1.35;;;2.10;99.90;;;;;;6193681;23;20005;-81
2021/01/14 03:28:12;;;;;;;1.92;1.80;;;2.10;99.90;;;;;;6218578;23;20005;-81
2021/01/14 03:30:37;;;;;;;1.70;1.60;;;2.10;99.90;;;;;;6220889;23;20015;-81
2021/01/14 03:33:03;;;;;;;1.52;1.40;;;2.10;99.90;;;;;;6223490;23;20143;-81
2021/01/14 03:35:29;;;;;;;1.45;1.30;;;2.00;99.90;;;;;;6223770;23;19997;-81
2021/01/14 07:12:44;;;;;;;9.25;3.90;;;1.50;98.50;;;;;;6222483;23;20075;-81
2021/01/14 07:15:15;;;;;;;9.13;5.20;;;1.50;98.70;;;;;;6222986;23;20005;-82
2021/01/14 07:17:43;;;;;;;5.63;3.55;;;1.60;97.80;;;;;;6187758;23;20008;-82
2021/01/14 07:20:14;;;;;;;8.63;3.75;;;1.60;97.50;;;;;;6193658;23;20027;-79
2021/01/14 07:23:01;;;;;;;7.72;4.60;;;1.50;97.50;;;;;;6195178;23;20012;-83
2021/01/14 07:25:27;;;;;;;10.63;3.92;;;1.50;98.00;;;;;;6197103;23;20329;-82
2021/01/14 07:27:53;;;;;;;7.88;3.72;;;1.50;97.50;;;;;;6196088;23;20035;-83
2021/01/14 07:30:20;;;;;;;8.82;3.85;;;1.50;97.00;;;;;;6194568;23;20030;-81
2021/01/14 07:32:54;;;;;;;6.03;3.97;;;1.50;97.10;;;;;;6192439;23;19997;-86
2021/01/14 07:35:43;;;;;;;8.10;3.70;;;1.50;96.80;;;;;;6193903;23;20081;-84
2021/01/14 07:38:14;;;;;;;10.43;3.78;;;1.50;96.40;;;;;;6166475;23;20009;-84
2021/01/14 07:40:41;;;;;;;6.38;4.25;;;1.40;96.60;;;;;;6193443;23;20009;-83
2021/01/14 07:43:09;;;;;;;8.27;3.88;;;1.50;96.30;;;;;;6193225;23;20029;-84
2021/01/14 07:45:35;;;;;;;8.05;3.88;;;1.60;95.80;;;;;;6195525;23;20001;-84
2021/01/14 07:48:21;;;;;;;7.15;3.97;;;1.50;95.90;;;;;;6169073;23;20013;-84
2021/01/14 07:51:03;;;;;;;6.75;3.80;;;1.50;96.50;;;;;;6195302;23;20029;-84
2021/01/14 07:53:29;;;;;;;8.90;4.20;;;1.50;96.40;;;;;;6171353;23;20035;-84
2021/01/14 07:55:55;;;;;;;8.40;3.50;;;1.50;96.10;;;;;;6198328;23;20023;-82
2021/01/14 07:58:23;;;;;;;7.07;3.63;;;1.50;95.90;;;;;;6195281;23;20413;-84
2021/01/14 08:00:59;;;;;;;6.00;3.47;;;1.60;96.10;;;;;;6168039;23;20005;-83
2021/01/14 08:03:32;;;;;;;6.40;4.05;;;1.60;96.40;;;;;;6167252;23;20012;-84
2021/01/14 08:06:02;;;;;;;7.28;4.00;;;1.60;96.90;;;;;;6194592;23;20001;-82
2021/01/14 08:08:37;;;;;;;11.80;4.22;;;1.60;97.30;;;;;;6188647;23;20051;-81
2021/01/14 08:11:17;;;;;;;5.95;4.05;;;1.60;96.90;;;;;;6192975;23;20093;-82
2021/01/14 08:14:10;;;;;;;5.75;3.75;;;1.60;96.30;;;;;;6191366;23;20001;-82
2021/01/14 08:16:35;;;;;;;;;;;1.60;96.10;;;;;;6193411;23;20001;-85
2021/01/14 08:19:09;;;;;;;4.90;3.70;;;1.60;96.30;;;;;;6192121;23;19923;-84
2021/01/14 08:21:35;;;;;;;5.72;3.55;;;1.70;95.70;;;;;;6194195;23;20460;-82
2021/01/14 08:24:01;;;;;;;5.40;3.20;;;1.70;95.80;;;;;;6164610;23;20005;-83
2021/01/14 08:26:27;;;;;;;8.38;4.18;;;1.70;96.00;;;;;;6191862;23;20009;-81
2021/01/14 08:29:02;;;;;;;8.75;4.50;;;1.60;96.20;;;;;;6190771;23;20059;-82
2021/01/14 08:31:37;;;;;;;8.40;4.53;;;1.60;96.50;;;;;;6191915;23;20001;-83
2021/01/14 08:34:05;;;;;;;5.38;3.70;;;1.60;96.60;;;;;;6164838;23;20324;-83
2021/01/14 08:36:40;;;;;;;11.35;4.40;;;1.60;96.10;;;;;;6164733;23;20005;-84
2021/01/14 08:39:08;;;;;;;7.80;4.25;;;1.60;96.00;;;;;;6164315;23;20008;-84
2021/01/14 08:41:37;;;;;;;4.78;3.45;;;1.60;95.70;;;;;;6192332;23;20049;-85
2021/01/14 08:44:04;;;;;;;5.75;3.50;;;1.60;95.40;;;;;;6177279;23;20003;-84
2021/01/14 08:46:40;;;;;;;5.88;3.20;;;1.70;94.40;;;;;;6206930;23;20001;-83
2021/01/14 08:49:13;;;;;;;4.90;3.10;;;1.70;93.50;;;;;;6207923;23;20001;-84
2021/01/14 08:51:40;;;;;;;12.45;3.55;;;1.70;93.40;;;;;;6203826;23;20127;-84
2021/01/14 08:54:07;;;;;;;9.30;3.33;;;1.80;92.80;;;;;;6170798;23;20001;-84
2021/01/14 08:56:33;;;;;;;6.90;3.70;;;1.70;92.70;;;;;;6171100;23;20079;-85
2021/01/14 08:59:18;;;;;;;7.07;3.50;;;1.70;92.90;;;;;;6197876;23;20009;-85
2021/01/14 09:01:44;;;;;;;5.80;3.33;;;1.70;93.20;;;;;;6195415;23;20025;-83
2021/01/14 09:04:10;;;;;;;10.65;3.88;;;1.70;93.60;;;;;;6169276;23;20012;-87
2021/01/14 09:06:38;;;;;;;6.22;3.47;;;1.80;93.50;;;;;;6200253;23;19995;-82
2021/01/14 09:09:06;;;;;;;7.10;3.45;;;1.80;93.30;;;;;;6175766;23;20009;-85
2021/01/14 09:11:33;;;;;;;4.80;3.33;;;1.70;93.40;;;;;;6174055;23;20020;-84
2021/01/14 09:14:10;;;;;;;4.22;3.40;;;1.70;93.30;;;;;;6176628;23;20001;-86
2021/01/14 09:16:37;;;;;;;6.32;3.67;;;1.80;93.70;;;;;;6210529;23;19993;-84
2021/01/14 09:19:18;;;;;;;5.95;3.60;;;1.80;93.90;;;;;;6185149;23;20101;-85
2021/01/14 09:21:44;;;;;;;12.90;4.07;;;1.80;93.30;;;;;;6185650;23;19989;-84
2021/01/14 09:24:12;;;;;;;6.88;3.55;;;1.90;93.00;;;;;;6184959;23;20073;-84
2021/01/14 09:26:38;;;;;;;6.53;4.20;;;1.80;93.40;;;;;;6211211;23;20037;-84
2021/01/14 09:29:06;;;;;;;6.20;3.83;;;1.80;93.80;;;;;;6185790;23;20005;-84
2021/01/14 09:31:33;;;;;;;9.02;4.15;;;1.90;94.00;;;;;;6185085;23;20011;-85
2021/01/14 09:34:00;;;;;;;6.38;3.63;;;1.80;94.10;;;;;;6184195;23;20024;-85
2021/01/14 09:36:26;;;;;;;6.95;3.78;;;1.80;94.30;;;;;;6176977;23;20001;-85
2021/01/14 09:39:05;;;;;;;7.25;3.83;;;1.80;94.70;;;;;;6185338;23;20024;-82
2021/01/14 09:41:36;;;;;;;6.85;4.05;;;1.80;94.90;;;;;;6200654;23;20001;-83
2021/01/14 09:44:07;;;;;;;6.90;3.63;;;1.70;94.30;;;;;;6200769;23;20084;-81
2021/01/14 09:46:38;;;;;;;6.40;3.88;;;1.80;93.40;;;;;;6209444;23;19997;-80
2021/01/14 09:49:11;;;;;;;7.50;3.90;;;1.80;92.80;;;;;;6214411;23;20247;-82
2021/01/14 09:51:38;;;;;;;11.23;4.45;;;1.70;93.30;;;;;;6197877;23;20091;-83
2021/01/14 09:54:05;;;;;;;7.53;4.03;;;1.70;93.80;;;;;;6198117;23;20004;-82
2021/01/14 09:56:39;;;;;;;8.65;4.53;;;1.80;93.40;;;;;;6198268;23;20024;-81
2021/01/14 09:59:38;;;;;;;6.80;3.92;;;1.70;93.40;;;;;;6196823;23;20071;-82
2021/01/14 10:02:12;;;;;;;12.38;4.03;;;1.70;93.80;;;;;;6224061;23;20011;-83
2021/01/14 10:04:51;;;;;;;6.75;4.00;;;1.70;94.10;;;;;;6196252;23;20012;-83
2021/01/14 10:07:22;;;;;;;7.95;4.15;;;1.90;93.50;;;;;;6223889;23;20004;-85
2021/01/14 10:09:52;;;;;;;10.60;5.18;;;1.90;93.20;;;;;;6196209;23;20107;-83
2021/01/14 10:12:17;;;;;;;6.10;4.50;;;1.80;93.30;;;;;;6196489;23;20028;-82
2021/01/14 10:14:43;;;;;;;7.05;3.85;;;1.80;93.50;;;;;;6225161;23;19996;-81
2021/01/14 10:17:14;;;;;;;8.93;4.35;;;1.80;93.40;;;;;;6210731;23;20028;-81
2021/01/14 10:19:46;;;;;;;6.53;4.13;;;1.90;92.60;;;;;;6230104;23;20051;-82
2021/01/14 10:22:12;;;;;;;8.77;3.97;;;1.80;92.90;;;;;;6196256;23;20032;-83
2021/01/14 10:24:37;;;;;;;8.13;4.20;;;1.80;93.20;;;;;;6223047;23;20031;-82
2021/01/14 10:27:18;;;;;;;5.80;3.55;;;1.80;93.10;;;;;;6200472;23;20031;-87
2021/01/14 10:29:44;;;;;;;11.88;4.32;;;1.80;91.90;;;;;;6202871;23;20309;-87
2021/01/14 10:32:15;;;;;;;7.50;3.53;;;1.80;91.40;;;;;;6228468;23;20004;-88
2021/01/14 10:34:44;;;;;;;6.53;3.17;;;1.80;90.80;;;;;;6230108;23;20017;-88
2021/01/14 10:37:30;;;;;;;6.28;3.22;;;1.80;90.00;;;;;;6203123;23;20000;-89
2021/01/14 10:39:57;;;;;;;9.13;3.67;;;1.70;90.40;;;;;;6207412;23;20016;-87
2021/01/14 10:42:36;;;;;;;9.27;3.28;;;1.70;90.50;;;;;;6233596;23;20372;-88
2021/01/14 11:06:30;;;;;;;4.75;2.72;;;;;;;;;;6223365;23;20024;-86
2021/01/14 11:09:07;;;;;;;4.28;2.47;;;1.30;89.20;;;;;;6196814;23;20009;-86
2021/01/14 11:11:33;;;;;;;7.38;2.53;;;1.20;90.30;;;;;;6224278;23;20008;-86
2021/01/14 11:13:59;;;;;;;2.58;1.35;;;1.00;90.80;;;;;;6223333;23;20000;-86
2021/01/14 11:16:26;;;;;;;3.97;1.63;;;0.80;91.40;;;;;;6197004;23;20000;-86
2021/01/14 11:18:54;;;;;;;3.13;1.60;;;0.70;92.10;;;;;;6201585;23;20005;-86
2021/01/14 11:21:30;;;;;;;2.60;1.50;;;0.70;92.60;;;;;;6209585;23;20055;-85
2021/01/14 11:23:57;;;;;;;2.22;1.67;;;0.60;92.50;;;;;;6196093;23;20039;-89
2021/01/14 11:26:23;;;;;;;1.77;1.10;;;0.60;92.90;;;;;;6197633;23;20400;-86
2021/01/14 11:28:49;;;;;;;3.88;1.80;;;0.60;93.30;;;;;;6199514;23;20415;-87
2021/01/14 11:31:20;;;;;;;9.00;6.00;;;0.50;93.50;;;;;;6196750;23;20027;-87
2021/01/14 11:33:46;;;;;;;4.00;1.60;;;0.60;93.20;;;;;;6217825;23;19997;-87
2021/01/14 11:36:14;;;;;;;2.15;1.40;;;0.60;93.20;;;;;;6189893;23;20046;-87
2021/01/14 11:38:42;;;;;;;2.80;1.83;;;0.60;93.20;;;;;;6219006;23;20009;-86
2021/01/14 11:41:08;;;;;;;2.20;1.13;;;0.70;93.20;;;;;;6222494;23;20317;-86
2021/01/14 11:43:35;;;;;;;2.70;1.15;;;0.70;92.60;;;;;;6191758;23;20015;-86
2021/01/14 11:46:01;;;;;;;1.95;1.23;;;0.70;92.10;;;;;;6195850;23;20005;-85
2021/01/14 11:48:27;;;;;;;2.00;1.42;;;0.70;92.40;;;;;;6225992;23;20008;-89
2021/01/14 11:50:53;;;;;;;1.02;0.95;;;0.70;92.60;;;;;;6225934;23;20028;-88
2021/01/14 11:53:19;;;;;;;2.03;1.30;;;0.70;92.60;;;;;;6226114;23;20008;-86
2021/01/14 11:55:44;;;;;;;2.75;1.50;;;0.70;93.10;;;;;;6200131;23;20331;-86
2021/01/14 11:58:11;;;;;;;3.30;1.30;;;0.60;93.70;;;;;;6199518;23;20054;-85
2021/01/14 12:00:36;;;;;;;4.28;1.27;;;0.40;95.10;;;;;;6197272;23;20044;-87
2021/01/14 12:03:05;;;;;;;3.00;1.08;;;0.40;95.60;;;;;;6219346;23;20321;-87
2021/01/14 12:05:31;;;;;;;1.13;1.00;;;0.30;97.00;;;;;;6191631;23;20019;-87
2021/01/14 12:07:57;;;;;;;5.75;1.35;;;0.20;97.60;;;;;;6192002;23;20009;-87
2021/01/14 12:10:22;;;;;;;4.25;1.08;;;0.20;98.40;;;;;;6191715;23;20106;-87
2021/01/14 12:12:48;;;;;;;2.15;0.95;;;0.20;98.70;;;;;;6191378;23;20336;-86
2021/01/14 12:15:14;;;;;;;1.50;0.80;;;0.00;98.90;;;;;;6221668;23;19997;-86
2021/01/14 12:17:40;;;;;;;1.30;1.00;;;-0.10;99.30;;;;;;6204028;23;20059;-86
2021/01/14 12:20:06;;;;;;;3.72;2.03;;;-0.20;99.90;;;;;;6201801;23;20007;-86
2021/01/14 12:22:34;;;;;;;1.42;0.80;;;-0.30;99.90;;;;;;6219194;23;20001;-86
2021/01/14 12:24:59;;;;;;;2.95;1.15;;;-0.30;99.90;;;;;;6193044;23;20095;-84
2021/01/14 12:27:25;;;;;;;1.75;0.93;;;-0.30;99.90;;;;;;6218669;23;20004;-86
2021/01/14 12:29:51;;;;;;;4.28;1.65;;;-0.10;99.90;;;;;;6189407;23;20007;-86
2021/01/14 12:32:16;;;;;;;2.65;1.52;;;-0.30;99.90;;;;;;6215926;23;20005;-86
2021/01/14 12:34:42;;;;;;;1.40;1.00;;;-0.10;99.90;;;;;;6217567;23;20396;-86
2021/01/14 12:37:08;;;;;;;2.50;0.98;;;-0.10;99.80;;;;;;6190641;23;20432;-86
2021/01/14 12:39:34;;;;;;;2.08;0.90;;;-0.10;99.40;;;;;;6218617;23;20000;-85
2021/01/14 12:41:59;;;;;;;1.80;0.95;;;0.00;98.40;;;;;;6220666;23;20281;-85
2021/01/14 12:44:25;;;;;;;1.70;0.95;;;0.10;98.10;;;;;;6239742;22;20001;-85
2021/01/14 12:46:51;;;;;;;1.83;0.90;;;0.10;97.10;;;;;;6193781;23;20388;-86
2021/01/14 12:49:18;;;;;;;1.63;1.15;;;0.10;96.90;;;;;;6215965;23;19996;-86
2021/01/14 12:51:45;;;;;;;1.10;0.90;;;0.10;96.90;;;;;;6190570;23;20000;-85
2021/01/14 12:54:10;;;;;;;3.22;1.17;;;0.10;96.60;;;;;;6217228;23;19993;-86
2021/01/14 12:56:36;;;;;;;1.30;0.80;;;0.00;96.40;;;;;;6216250;23;20007;-87
2021/01/14 12:59:03;;;;;;;2.92;1.42;;;0.00;96.30;;;;;;6217786;23;20012;-86
2021/01/14 13:01:34;;;;;;;3.03;1.20;;;0.10;96.30;;;;;;6189450;23;20032;-86
2021/01/14 13:04:01;;;;;;;2.45;0.93;;;0.10;96.00;;;;;;6216791;23;20007;-85
2021/01/14 13:06:31;;;;;;;4.25;1.83;;;0.20;96.00;;;;;;6190477;23;20087;-86
2021/01/14 13:08:59;;;;;;;1.50;0.88;;;0.10;96.10;;;;;;6189830;23;20008;-85
2021/01/14 13:11:26;;;;;;;0.93;0.70;;;0.10;96.00;;;;;;6217176;23;20021;-84
2021/01/14 13:13:52;;;;;;;4.28;0.80;;;0.10;95.50;;;;;;6191544;23;20008;-86
2021/01/14 13:16:22;;;;;;;0.90;0.73;;;-0.10;95.70;;;;;;6218073;23;19996;-86
2021/01/14 13:18:48;;;;;;;1.45;1.02;;;-0.10;96.20;;;;;;6220336;23;20066;-84
2021/01/14 13:21:14;;;;;;;0.73;0.73;;;-0.10;96.10;;;;;;6219961;23;20019;-84
2021/01/14 13:23:39;;;;;;;1.23;0.75;;;0.00;96.00;;;;;;6194872;23;20038;-84
2021/01/14 13:26:09;;;;;;;2.50;1.10;;;0.00;96.10;;;;;;6196133;23;20047;-87
2021/01/14 13:28:35;;;;;;;3.08;1.05;;;0.00;95.80;;;;;;6195914;23;20009;-86
2021/01/14 13:31:01;;;;;;;3.72;1.45;;;0.10;95.70;;;;;;6194764;23;20332;-85
2021/01/14 13:33:27;;;;;;;2.47;0.70;;;0.00;95.40;;;;;;6192899;23;20111;-85
2021/01/14 13:35:57;;;;;;;4.57;0.80;;;0.00;95.80;;;;;;6193733;23;20001;-86
2021/01/14 13:38:23;;;;;;;1.48;0.82;;;-0.10;95.90;;;;;;6219609;23;20007;-85
2021/01/14 13:40:49;;;;;;;1.63;0.75;;;-0.20;96.10;;;;;;6218974;23;20024;-86
2021/01/14 13:43:15;;;;;;;1.95;1.23;;;-0.10;96.60;;;;;;6190193;23;20402;-86
2021/01/14 13:45:41;;;;;;;4.80;1.80;;;-0.10;96.80;;;;;;6193073;23;20071;-86
2021/01/14 13:48:07;;;;;;;3.72;1.20;;;-0.10;96.70;;;;;;6218910;23;20001;-86
2021/01/14 13:50:32;;;;;;;7.97;1.55;;;-0.10;97.40;;;;;;6191284;23;20000;-85
2021/01/14 13:52:58;;;;;;;1.77;1.05;;;0.00;96.40;;;;;;6191181;23;20078;-86
2021/01/14 13:55:24;;;;;;;2.83;1.17;;;0.10;96.30;;;;;;6191969;23;20012;-86
2021/01/14 13:57:49;;;;;;;2.63;1.25;;;0.10;95.70;;;;;;6192157;23;20012;-86
2021/01/14 14:00:15;;;;;;;7.10;1.20;;;0.10;95.70;;;;;;6219821;23;20000;-86
2021/01/14 14:02:44;;;;;;;12.80;4.60;;;0.10;96.10;;;;;;6193768;23;20008;-86
2021/01/14 14:05:10;;;;;;;2.58;1.23;;;0.10;96.50;;;;;;6193757;23;20167;-86
2021/01/14 14:07:39;;;;;;;2.03;1.20;;;0.10;96.10;;;;;;6218603;23;20032;-86
2021/01/14 14:10:06;;;;;;;1.95;0.88;;;0.00;95.80;;;;;;6192121;23;20429;-86
2021/01/14 14:12:31;;;;;;;2.30;1.17;;;0.00;95.80;;;;;;6218721;23;20000;-86
2021/01/14 14:14:57;;;;;;;2.78;1.05;;;0.00;96.20;;;;;;6192664;23;20001;-86
2021/01/14 14:17:23;;;;;;;3.22;0.90;;;0.00;95.80;;;;;;6200660;23;20051;-86
2021/01/14 14:19:48;;;;;;;3.60;1.05;;;0.00;95.90;;;;;;6231328;23;20065;-86
2021/01/14 14:22:14;;;;;;;3.10;1.20;;;0.00;95.40;;;;;;6222723;23;20000;-86
2021/01/14 14:24:40;;;;;;;2.50;1.15;;;0.10;95.50;;;;;;6194315;23;20004;-86
2021/01/14 14:27:05;;;;;;;3.47;1.08;;;0.20;95.00;;;;;;6193289;23;20119;-86
2021/01/14 14:29:31;;;;;;;2.17;1.25;;;0.10;94.60;;;;;;6194390;23;20080;-86
2021/01/14 14:31:57;;;;;;;2.55;1.27;;;0.10;94.80;;;;;;6193291;23;20059;-86
2021/01/14 14:34:22;;;;;;;3.60;1.35;;;0.10;94.90;;;;;;6220072;23;20277;-85
2021/01/14 14:36:48;;;;;;;2.88;1.48;;;0.30;93.80;;;;;;6222177;23;20012;-85
2021/01/14 14:39:14;;;;;;;1.48;1.05;;;0.20;93.80;;;;;;6199513;23;20007;-86
2021/01/14 14:41:39;;;;;;;5.50;1.42;;;0.20;94.00;;;;;;6210998;23;20008;-85
2021/01/14 14:44:05;;;;;;;3.72;1.35;;;0.20;94.10;;;;;;6240466;22;19993;-85
2021/01/14 14:46:33;;;;;;;6.65;1.85;;;0.20;94.40;;;;;;6205345;23;20008;-86
2021/01/14 14:48:59;;;;;;;4.82;1.60;;;0.20;94.50;;;;;;6195476;23;20027;-86
2021/01/14 14:51:25;;;;;;;1.88;1.58;;;0.20;93.90;;;;;;6192336;23;20020;-86
2021/01/14 14:53:51;;;;;;;2.58;1.35;;;0.20;94.10;;;;;;6191923;23;20008;-85
2021/01/14 14:56:19;;;;;;;4.28;1.75;;;0.20;94.00;;;;;;6192947;23;20055;-86
2021/01/14 14:58:45;;;;;;;5.57;1.88;;;0.20;94.40;;;;;;6222511;23;20009;-87
2021/01/14 15:01:11;;;;;;;2.63;1.40;;;0.20;94.40;;;;;;6193690;23;20428;-85
2021/01/14 15:03:38;;;;;;;8.35;2.03;;;0.20;94.30;;;;;;6203398;23;20031;-85
2021/01/14 15:06:04;;;;;;;3.97;1.50;;;0.20;94.50;;;;;;6201595;23;20021;-83
2021/01/14 15:08:33;;;;;;;2.50;1.40;;;0.20;94.30;;;;;;6192890;23;20072;-84
2021/01/14 15:10:59;;;;;;;4.40;1.73;;;0.30;93.80;;;;;;6222187;23;20388;-84
2021/01/14 15:13:24;;;;;;;2.55;1.48;;;0.20;93.80;;;;;;6223518;23;20079;-86
2021/01/14 15:15:50;;;;;;;1.85;1.40;;;0.20;94.00;;;;;;6194810;23;20020;-84
2021/01/14 15:18:16;;;;;;;1.48;1.20;;;0.20;94.00;;;;;;6222597;23;20044;-84
2021/01/14 15:20:45;;;;;;;1.73;1.45;;;0.20;94.30;;;;;;6196526;23;20141;-84
2021/01/14 15:23:11;;;;;;;6.47;1.77;;;0.20;94.60;;;;;;6194310;23;20004;-84
2021/01/14 15:25:37;;;;;;;2.38;1.70;;;0.20;94.60;;;;;;6222012;23;20024;-84
2021/01/14 15:28:03;;;;;;;2.33;1.65;;;0.20;94.70;;;;;;6195212;23;20044;-84
2021/01/14 15:30:29;;;;;;;2.42;1.50;;;0.20;94.80;;;;;;6196688;23;20016;-83
2021/01/14 15:32:54;;;;;;;5.95;1.58;;;0.20;94.80;;;;;;6194941;23;20039;-86
2021/01/14 15:35:20;;;;;;;2.35;1.40;;;0.20;94.80;;;;;;6229395;23;20428;-82
2021/01/14 15:37:47;;;;;;;2.00;1.60;;;0.20;94.30;;;;;;6211214;23;20012;-83
2021/01/14 15:40:15;;;;;;;4.72;1.52;;;0.30;93.90;;;;;;6208435;23;20005;-83
2021/01/14 15:42:41;;;;;;;7.70;2.17;;;0.30;93.70;;;;;;6207933;23;20080;-84
2021/01/14 15:45:09;;;;;;;3.88;2.08;;;0.20;94.10;;;;;;6221665;23;19997;-84
2021/01/14 15:47:35;;;;;;;5.15;2.13;;;0.20;93.90;;;;;;6221551;23;20091;-84
2021/01/14 15:50:03;;;;;;;4.25;1.50;;;0.30;93.90;;;;;;6195132;23;20017;-84
2021/01/14 15:52:29;;;;;;;4.35;2.28;;;0.20;93.90;;;;;;6222064;23;20040;-84
2021/01/14 15:54:55;;;;;;;4.78;1.60;;;0.20;94.00;;;;;;6195649;23;20001;-85
2021/01/14 15:57:21;;;;;;;4.55;2.10;;;0.30;93.70;;;;;;6194099;23;20016;-86
2021/01/14 15:59:47;;;;;;;14.30;5.03;;;0.20;93.70;;;;;;6220451;23;20012;-87
2021/01/14 16:02:14;;;;;;;4.28;1.80;;;0.10;94.20;;;;;;6195183;23;20005;-86
2021/01/14 16:04:45;;;;;;;5.13;3.65;;;0.10;94.30;;;;;;6223454;23;20009;-87
2021/01/14 16:07:14;;;;;;;2.40;1.70;;;0.00;94.70;;;;;;6192826;23;20405;-86
2021/01/14 16:09:42;;;;;;;4.60;2.20;;;0.00;94.90;;;;;;6218726;23;20442;-88
2021/01/14 16:12:08;;;;;;;3.03;2.08;;;0.00;94.90;;;;;;6192119;23;20068;-88
2021/01/14 16:14:35;;;;;;;5.97;1.98;;;0.00;95.20;;;;;;6219055;23;20286;-88
2021/01/14 16:17:01;;;;;;;3.67;1.92;;;0.00;95.20;;;;;;6191880;23;20004;-87
2021/01/14 16:19:27;;;;;;;3.20;1.88;;;0.10;95.00;;;;;;6195136;23;20031;-87
2021/01/14 16:21:55;;;;;;;2.45;1.92;;;0.10;94.60;;;;;;6220739;23;20332;-87
2021/01/14 16:24:22;;;;;;;4.80;1.95;;;0.10;94.70;;;;;;6193850;23;20068;-88
2021/01/14 16:26:48;;;;;;;5.13;2.47;;;0.10;94.50;;;;;;6219668;23;20332;-88
2021/01/14 16:29:15;;;;;;;5.15;3.03;;;0.10;94.80;;;;;;6191537;23;20016;-87
2021/01/14 16:31:52;;;;;;;17.80;7.32;;;0.10;95.20;;;;;;6191497;23;20032;-87
2021/01/14 16:34:19;;;;;;;7.35;4.05;;;0.10;95.20;;;;;;6218368;23;20000;-88
2021/01/14 16:36:45;;;;;;;4.85;2.75;;;0.10;95.40;;;;;;6191897;23;19996;-87
2021/01/14 16:39:12;;;;;;;4.03;2.70;;;0.20;95.50;;;;;;6218816;23;20035;-87
2021/01/14 16:41:39;;;;;;;2.88;2.08;;;0.20;95.30;;;;;;6218847;23;20004;-86
2021/01/14 16:44:05;;;;;;;5.53;3.83;;;0.20;95.20;;;;;;6193525;23;20004;-88
2021/01/14 16:46:32;;;;;;;18.88;9.30;;;0.10;95.30;;;;;;6193194;23;20008;-85
2021/01/14 16:49:06;;;;;;;11.95;6.43;;;0.10;95.50;;;;;;6194828;23;20001;-85
2021/01/14 16:51:32;;;;;;;7.03;3.40;;;0.20;95.90;;;;;;6192736;23;20005;-86
2021/01/14 16:54:01;;;;;;;6.82;3.60;;;0.20;96.00;;;;;;6195294;23;20084;-86
2021/01/14 16:56:27;;;;;;;5.13;2.38;;;0.20;96.00;;;;;;6192383;23;20254;-86